sensor_id;sensor_type;location;lat;lon;timestamp;temperature;humidity
7028;DHT22;3555;53.248;10.336;2024-03-07T00:00:10;4.20;99.90
7028;DHT22;3555;53.248;10.336;2024-03-07T00:02:42;4.30;99.90
7028;DHT22;3555;53.248;10.336;2024-03-07T00:05:11;4.30;99.90
7028;DHT22;3555;53.248;10.336;2024-03-07T00:07:39;4.40;99.90
7028;DHT22;3555;53.248;10.336;2024-03-07T00:10:06;4.40;99.90
7028;DHT22;3555;53.248;10.336;2024-03-07T00:12:34;4.40;99.90
7028;DHT22;3555;53.248;10.336;2024-03-07T00:15:01;4.50;99.90
7028;DHT22;3555;53.248;10.336;2024-03-07T00:17:28;4.60;99.90
7028;DHT22;3555;53.248;10.336;2024-03-07T00:19:55;4.60;99.90
7028;DHT22;3555;53.248;10.336;2024-03-07T00:22:23;4.70;99.90
7028;DHT22;3555;53.248;10.336;2024-03-07T00:24:52;4.60;99.90
7028;DHT22;3555;53.248;10.336;2024-03-07T00:27:19;4.60;99.90
7028;DHT22;3555;53.248;10.336;2024-03-07T00:29:46;4.50;99.90
7028;DHT22;3555;53.248;10.336;2024-03-07T00:32:18;4.60;99.90
7028;DHT22;3555;53.248;10.336;2024-03-07T00:34:45;4.60;99.90
7028;DHT22;3555;53.248;10.336;2024-03-07T00:37:12;4.60;99.90
7028;DHT22;3555;53.248;10.336;2024-03-07T00:39:41;4.70;99.90
7028;DHT22;3555;53.248;10.336;2024-03-07T00:42:08;4.60;99.90
7028;DHT22;3555;53.248;10.336;2024-03-07T00:44:35;4.70;99.90
7028;DHT22;3555;53.248;10.336;2024-03-07T00:47:02;4.80;99.90
7028;DHT22;3555;53.248;10.336;2024-03-07T00:49:30;4.80;99.90
7028;DHT22;3555;53.248;10.336;2024-03-07T00:51:58;4.90;99.90
7028;DHT22;3555;53.248;10.336;2024-03-07T00:54:24;4.90;99.90
7028;DHT22;3555;53.248;10.336;2024-03-07T00:56:53;4.90;99.90
7028;DHT22;3555;53.248;10.336;2024-03-07T00:59:20;4.90;99.90
7028;DHT22;3555;53.248;10.336;2024-03-07T01:01:48;5.00;99.90
7028;DHT22;3555;53.248;10.336;2024-03-07T01:04:15;5.00;99.90
7028;DHT22;3555;53.248;10.336;2024-03-07T01:06:43;5.00;99.90
7028;DHT22;3555;53.248;10.336;2024-03-07T01:09:10;5.10;99.90
7028;DHT22;3555;53.248;10.336;2024-03-07T01:11:40;5.10;99.90
7028;DHT22;3555;53.248;10.336;2024-03-07T01:14:09;5.10;99.90
7028;DHT22;3555;53.248;10.336;2024-03-07T01:16:35;4.80;99.90
7028;DHT22;3555;53.248;10.336;2024-03-07T01:19:02;4.80;99.90
7028;DHT22;3555;53.248;10.336;2024-03-07T01:21:31;4.80;99.90
7028;DHT22;3555;53.248;10.336;2024-03-07T01:23:58;4.90;99.90
7028;DHT22;3555;53.248;10.336;2024-03-07T01:26:26;5.00;99.90
7028;DHT22;3555;53.248;10.336;2024-03-07T01:28:52;5.00;99.90
7028;DHT22;3555;53.248;10.336;2024-03-07T01:31:22;5.10;99.90
7028;DHT22;3555;53.248;10.336;2024-03-07T01:33:49;5.10;99.90
7028;DHT22;3555;53.248;10.336;2024-03-07T01:36:16;5.20;99.90
7028;DHT22;3555;53.248;10.336;2024-03-07T01:38:42;5.20;99.90
7028;DHT22;3555;53.248;10.336;2024-03-07T01:41:09;5.30;99.90
7028;DHT22;3555;53.248;10.336;2024-03-07T01:43:36;5.30;99.90
7028;DHT22;3555;53.248;10.336;2024-03-07T01:46:03;5.40;99.90
7028;DHT22;3555;53.248;10.336;2024-03-07T01:48:32;5.40;99.90
7028;DHT22;3555;53.248;10.336;2024-03-07T01:50:59;5.50;99.90
7028;DHT22;3555;53.248;10.336;2024-03-07T01:53:30;5.50;99.90
7028;DHT22;3555;53.248;10.336;2024-03-07T01:55:57;5.60;99.90
7028;DHT22;3555;53.248;10.336;2024-03-07T01:58:25;5.60;99.90
7028;DHT22;3555;53.248;10.336;2024-03-07T02:00:53;5.60;99.90
7028;DHT22;3555;53.248;10.336;2024-03-07T02:03:20;5.60;99.90
7028;DHT22;3555;53.248;10.336;2024-03-07T02:05:48;5.50;99.90
7028;DHT22;3555;53.248;10.336;2024-03-07T02:08:16;5.50;99.90
7028;DHT22;3555;53.248;10.336;2024-03-07T02:10:43;5.60;99.90
7028;DHT22;3555;53.248;10.336;2024-03-07T02:13:10;5.60;99.90
7028;DHT22;3555;53.248;10.336;2024-03-07T02:15:36;5.60;99.90
7028;DHT22;3555;53.248;10.336;2024-03-07T02:18:04;5.50;99.90
7028;DHT22;3555;53.248;10.336;2024-03-07T02:20:31;5.60;99.90
7028;DHT22;3555;53.248;10.336;2024-03-07T02:22:59;5.50;99.90
7028;DHT22;3555;53.248;10.336;2024-03-07T02:25:26;5.60;99.90
7028;DHT22;3555;53.248;10.336;2024-03-07T02:27:53;5.60;99.90
7028;DHT22;3555;53.248;10.336;2024-03-07T02:30:20;5.60;99.90
7028;DHT22;3555;53.248;10.336;2024-03-07T02:32:47;5.70;99.90
7028;DHT22;3555;53.248;10.336;2024-03-07T02:35:18;5.70;99.90
7028;DHT22;3555;53.248;10.336;2024-03-07T02:37:45;5.60;99.90
7028;DHT22;3555;53.248;10.336;2024-03-07T02:40:14;5.60;99.90
7028;DHT22;3555;53.248;10.336;2024-03-07T02:42:41;5.60;99.90
7028;DHT22;3555;53.248;10.336;2024-03-07T02:45:08;5.70;99.90
7028;DHT22;3555;53.248;10.336;2024-03-07T02:47:38;5.70;99.90
7028;DHT22;3555;53.248;10.336;2024-03-07T02:50:08;5.70;99.90
7028;DHT22;3555;53.248;10.336;2024-03-07T02:52:35;5.70;99.90
7028;DHT22;3555;53.248;10.336;2024-03-07T02:55:02;5.70;99.90
7028;DHT22;3555;53.248;10.336;2024-03-07T02:57:31;5.70;99.90
7028;DHT22;3555;53.248;10.336;2024-03-07T02:59:59;5.60;99.90
7028;DHT22;3555;53.248;10.336;2024-03-07T03:02:26;5.70;99.90
7028;DHT22;3555;53.248;10.336;2024-03-07T03:04:53;5.60;99.90
7028;DHT22;3555;53.248;10.336;2024-03-07T03:07:20;5.50;99.90
7028;DHT22;3555;53.248;10.336;2024-03-07T03:09:47;5.50;99.90
7028;DHT22;3555;53.248;10.336;2024-03-07T03:12:14;5.60;99.90
7028;DHT22;3555;53.248;10.336;2024-03-07T03:14:43;5.60;99.90
7028;DHT22;3555;53.248;10.336;2024-03-07T03:17:10;5.60;99.90
7028;DHT22;3555;53.248;10.336;2024-03-07T03:19:36;5.60;99.90
7028;DHT22;3555;53.248;10.336;2024-03-07T03:22:03;5.60;99.90
7028;DHT22;3555;53.248;10.336;2024-03-07T03:24:30;5.60;99.90
7028;DHT22;3555;53.248;10.336;2024-03-07T03:26:57;5.50;99.90
7028;DHT22;3555;53.248;10.336;2024-03-07T03:29:24;5.40;99.90
7028;DHT22;3555;53.248;10.336;2024-03-07T03:31:55;5.40;99.90
7028;DHT22;3555;53.248;10.336;2024-03-07T03:34:22;5.40;99.90
7028;DHT22;3555;53.248;10.336;2024-03-07T03:36:48;5.30;99.90
7028;DHT22;3555;53.248;10.336;2024-03-07T03:39:15;5.30;99.90
7028;DHT22;3555;53.248;10.336;2024-03-07T03:41:42;5.20;99.90
7028;DHT22;3555;53.248;10.336;2024-03-07T03:44:09;5.20;99.90
7028;DHT22;3555;53.248;10.336;2024-03-07T03:46:37;5.10;99.90
7028;DHT22;3555;53.248;10.336;2024-03-07T03:49:05;5.00;99.90
7028;DHT22;3555;53.248;10.336;2024-03-07T03:51:32;5.10;99.90
7028;DHT22;3555;53.248;10.336;2024-03-07T03:53:59;5.00;99.90
7028;DHT22;3555;53.248;10.336;2024-03-07T03:56:26;5.00;99.90
7028;DHT22;3555;53.248;10.336;2024-03-07T03:58:53;5.00;99.90
7028;DHT22;3555;53.248;10.336;2024-03-07T04:01:20;5.10;99.90
7028;DHT22;3555;53.248;10.336;2024-03-07T04:03:46;5.10;99.90
7028;DHT22;3555;53.248;10.336;2024-03-07T04:06:14;4.90;99.90
7028;DHT22;3555;53.248;10.336;2024-03-07T04:08:41;4.90;99.90
7028;DHT22;3555;53.248;10.336;2024-03-07T04:11:08;4.80;99.90
7028;DHT22;3555;53.248;10.336;2024-03-07T04:13:36;4.90;99.90
7028;DHT22;3555;53.248;10.336;2024-03-07T04:16:04;4.70;99.90
7028;DHT22;3555;53.248;10.336;2024-03-07T04:18:31;4.60;99.90
7028;DHT22;3555;53.248;10.336;2024-03-07T04:20:57;4.60;99.90
7028;DHT22;3555;53.248;10.336;2024-03-07T04:23:26;4.50;99.90
7028;DHT22;3555;53.248;10.336;2024-03-07T04:25:53;4.40;99.90
7028;DHT22;3555;53.248;10.336;2024-03-07T04:28:21;4.30;99.90
7028;DHT22;3555;53.248;10.336;2024-03-07T04:30:48;4.40;99.90
7028;DHT22;3555;53.248;10.336;2024-03-07T04:33:15;4.20;99.90
7028;DHT22;3555;53.248;10.336;2024-03-07T04:35:42;4.20;99.90
7028;DHT22;3555;53.248;10.336;2024-03-07T04:38:09;4.10;99.90
7028;DHT22;3555;53.248;10.336;2024-03-07T04:40:41;3.90;99.90
7028;DHT22;3555;53.248;10.336;2024-03-07T04:43:08;3.90;99.90
7028;DHT22;3555;53.248;10.336;2024-03-07T04:45:36;4.00;99.90
7028;DHT22;3555;53.248;10.336;2024-03-07T04:48:04;4.00;99.90
7028;DHT22;3555;53.248;10.336;2024-03-07T04:50:31;4.00;99.90
7028;DHT22;3555;53.248;10.336;2024-03-07T04:52:58;3.90;99.90
7028;DHT22;3555;53.248;10.336;2024-03-07T04:55:25;3.90;99.90
7028;DHT22;3555;53.248;10.336;2024-03-07T04:57:53;3.90;99.90
7028;DHT22;3555;53.248;10.336;2024-03-07T05:00:20;3.90;99.90
7028;DHT22;3555;53.248;10.336;2024-03-07T05:02:49;3.70;99.90
7028;DHT22;3555;53.248;10.336;2024-03-07T05:05:16;3.60;99.90
7028;DHT22;3555;53.248;10.336;2024-03-07T05:07:48;3.60;99.90
7028;DHT22;3555;53.248;10.336;2024-03-07T05:10:16;3.70;99.90
7028;DHT22;3555;53.248;10.336;2024-03-07T05:12:43;3.70;99.90
7028;DHT22;3555;53.248;10.336;2024-03-07T05:15:11;3.70;99.90
7028;DHT22;3555;53.248;10.336;2024-03-07T05:17:38;3.60;99.90
7028;DHT22;3555;53.248;10.336;2024-03-07T05:20:08;3.50;99.90
7028;DHT22;3555;53.248;10.336;2024-03-07T05:22:36;3.40;99.90
7028;DHT22;3555;53.248;10.336;2024-03-07T05:25:06;3.40;99.90
7028;DHT22;3555;53.248;10.336;2024-03-07T05:27:33;3.40;99.90
7028;DHT22;3555;53.248;10.336;2024-03-07T05:30:01;3.30;99.90
7028;DHT22;3555;53.248;10.336;2024-03-07T05:32:30;3.30;99.90
7028;DHT22;3555;53.248;10.336;2024-03-07T05:34:59;3.30;99.90
7028;DHT22;3555;53.248;10.336;2024-03-07T05:37:26;3.30;99.90
7028;DHT22;3555;53.248;10.336;2024-03-07T05:39:53;3.20;99.90
7028;DHT22;3555;53.248;10.336;2024-03-07T05:42:20;3.30;99.90
7028;DHT22;3555;53.248;10.336;2024-03-07T05:44:47;3.30;99.90
7028;DHT22;3555;53.248;10.336;2024-03-07T05:47:14;3.30;99.90
7028;DHT22;3555;53.248;10.336;2024-03-07T05:49:43;3.20;99.90
7028;DHT22;3555;53.248;10.336;2024-03-07T05:52:10;3.10;99.90
7028;DHT22;3555;53.248;10.336;2024-03-07T05:54:37;3.10;99.90
7028;DHT22;3555;53.248;10.336;2024-03-07T05:57:03;3.20;99.90
7028;DHT22;3555;53.248;10.336;2024-03-07T05:59:32;3.30;99.90
7028;DHT22;3555;53.248;10.336;2024-03-07T06:01:59;3.40;99.90
7028;DHT22;3555;53.248;10.336;2024-03-07T06:04:26;3.40;99.90
7028;DHT22;3555;53.248;10.336;2024-03-07T06:06:54;3.30;99.90
7028;DHT22;3555;53.248;10.336;2024-03-07T06:09:21;3.40;99.90
7028;DHT22;3555;53.248;10.336;2024-03-07T06:11:48;3.40;99.90
7028;DHT22;3555;53.248;10.336;2024-03-07T06:14:16;3.30;99.90
7028;DHT22;3555;53.248;10.336;2024-03-07T06:16:43;3.30;99.90
7028;DHT22;3555;53.248;10.336;2024-03-07T06:19:10;3.30;99.90
7028;DHT22;3555;53.248;10.336;2024-03-07T06:21:39;3.30;99.90
7028;DHT22;3555;53.248;10.336;2024-03-07T06:24:08;3.20;99.90
7028;DHT22;3555;53.248;10.336;2024-03-07T06:26:37;3.20;99.90
7028;DHT22;3555;53.248;10.336;2024-03-07T06:29:13;3.20;99.90
7028;DHT22;3555;53.248;10.336;2024-03-07T06:31:41;3.20;99.90
7028;DHT22;3555;53.248;10.336;2024-03-07T06:34:09;3.10;99.90
7028;DHT22;3555;53.248;10.336;2024-03-07T06:36:36;3.10;99.90
7028;DHT22;3555;53.248;10.336;2024-03-07T06:39:03;3.10;99.90
7028;DHT22;3555;53.248;10.336;2024-03-07T06:41:33;3.10;99.90
7028;DHT22;3555;53.248;10.336;2024-03-07T06:44:00;3.00;99.90
7028;DHT22;3555;53.248;10.336;2024-03-07T06:46:27;3.10;99.90
7028;DHT22;3555;53.248;10.336;2024-03-07T06:48:55;3.00;99.90
7028;DHT22;3555;53.248;10.336;2024-03-07T06:51:22;3.10;99.90
7028;DHT22;3555;53.248;10.336;2024-03-07T06:53:50;3.30;99.90
7028;DHT22;3555;53.248;10.336;2024-03-07T06:56:17;3.30;99.90
7028;DHT22;3555;53.248;10.336;2024-03-07T06:58:45;3.20;99.90
7028;DHT22;3555;53.248;10.336;2024-03-07T07:01:13;3.20;99.90
7028;DHT22;3555;53.248;10.336;2024-03-07T07:03:42;3.20;99.90
7028;DHT22;3555;53.248;10.336;2024-03-07T07:06:10;3.30;99.90
7028;DHT22;3555;53.248;10.336;2024-03-07T07:08:37;3.30;99.90
7028;DHT22;3555;53.248;10.336;2024-03-07T07:11:04;3.20;99.90
7028;DHT22;3555;53.248;10.336;2024-03-07T07:13:31;3.10;99.90
7028;DHT22;3555;53.248;10.336;2024-03-07T07:16:00;3.10;99.90
7028;DHT22;3555;53.248;10.336;2024-03-07T07:18:27;3.10;99.90
7028;DHT22;3555;53.248;10.336;2024-03-07T07:20:53;3.10;99.90
7028;DHT22;3555;53.248;10.336;2024-03-07T07:23:22;2.90;99.90
7028;DHT22;3555;53.248;10.336;2024-03-07T07:25:49;2.80;99.90
7028;DHT22;3555;53.248;10.336;2024-03-07T07:28:15;2.80;99.90
7028;DHT22;3555;53.248;10.336;2024-03-07T07:30:42;2.90;99.90
7028;DHT22;3555;53.248;10.336;2024-03-07T07:33:11;3.00;99.90
7028;DHT22;3555;53.248;10.336;2024-03-07T07:35:37;3.00;99.90
7028;DHT22;3555;53.248;10.336;2024-03-07T07:38:04;2.90;99.90
7028;DHT22;3555;53.248;10.336;2024-03-07T07:40:32;2.90;99.90
7028;DHT22;3555;53.248;10.336;2024-03-07T07:42:59;2.90;99.90
7028;DHT22;3555;53.248;10.336;2024-03-07T07:45:26;2.90;99.90
7028;DHT22;3555;53.248;10.336;2024-03-07T07:47:54;3.00;99.90
7028;DHT22;3555;53.248;10.336;2024-03-07T07:50:23;3.10;99.90
7028;DHT22;3555;53.248;10.336;2024-03-07T07:52:51;3.10;99.90
7028;DHT22;3555;53.248;10.336;2024-03-07T07:55:20;3.10;99.90
7028;DHT22;3555;53.248;10.336;2024-03-07T07:57:49;3.20;99.90
7028;DHT22;3555;53.248;10.336;2024-03-07T08:00:18;3.20;99.90
7028;DHT22;3555;53.248;10.336;2024-03-07T08:02:52;3.00;99.90
7028;DHT22;3555;53.248;10.336;2024-03-07T08:05:20;3.10;99.90
7028;DHT22;3555;53.248;10.336;2024-03-07T08:07:50;3.00;99.90
7028;DHT22;3555;53.248;10.336;2024-03-07T08:10:18;2.90;99.90
7028;DHT22;3555;53.248;10.336;2024-03-07T08:12:46;2.90;99.90
7028;DHT22;3555;53.248;10.336;2024-03-07T08:15:14;2.80;99.90
7028;DHT22;3555;53.248;10.336;2024-03-07T08:17:42;2.70;99.90
7028;DHT22;3555;53.248;10.336;2024-03-07T08:20:13;2.80;99.90
7028;DHT22;3555;53.248;10.336;2024-03-07T08:22:40;2.70;99.90
7028;DHT22;3555;53.248;10.336;2024-03-07T08:25:09;2.80;99.90
7028;DHT22;3555;53.248;10.336;2024-03-07T08:27:38;2.90;99.90
7028;DHT22;3555;53.248;10.336;2024-03-07T08:30:06;3.00;99.90
7028;DHT22;3555;53.248;10.336;2024-03-07T08:32:34;3.00;99.90
7028;DHT22;3555;53.248;10.336;2024-03-07T08:35:03;3.10;99.90
7028;DHT22;3555;53.248;10.336;2024-03-07T08:37:33;3.10;99.90
7028;DHT22;3555;53.248;10.336;2024-03-07T08:40:00;3.20;99.90
7028;DHT22;3555;53.248;10.336;2024-03-07T08:42:32;3.30;99.90
7028;DHT22;3555;53.248;10.336;2024-03-07T08:44:59;3.40;99.90
7028;DHT22;3555;53.248;10.336;2024-03-07T08:47:26;3.30;99.90
7028;DHT22;3555;53.248;10.336;2024-03-07T08:49:54;3.30;99.90
7028;DHT22;3555;53.248;10.336;2024-03-07T08:52:21;3.40;99.90
7028;DHT22;3555;53.248;10.336;2024-03-07T08:54:48;3.30;99.90
7028;DHT22;3555;53.248;10.336;2024-03-07T08:57:15;3.40;99.90
7028;DHT22;3555;53.248;10.336;2024-03-07T08:59:46;3.50;99.90
7028;DHT22;3555;53.248;10.336;2024-03-07T09:02:12;3.40;99.90
7028;DHT22;3555;53.248;10.336;2024-03-07T09:04:39;3.50;99.90
7028;DHT22;3555;53.248;10.336;2024-03-07T09:07:07;3.50;99.90
7028;DHT22;3555;53.248;10.336;2024-03-07T09:09:34;3.50;99.90
7028;DHT22;3555;53.248;10.336;2024-03-07T09:12:01;3.50;99.90
7028;DHT22;3555;53.248;10.336;2024-03-07T09:14:28;3.50;99.90
7028;DHT22;3555;53.248;10.336;2024-03-07T09:16:57;3.70;99.90
7028;DHT22;3555;53.248;10.336;2024-03-07T09:19:24;3.70;99.90
7028;DHT22;3555;53.248;10.336;2024-03-07T09:21:51;3.70;99.90
7028;DHT22;3555;53.248;10.336;2024-03-07T09:24:19;3.70;99.90
7028;DHT22;3555;53.248;10.336;2024-03-07T09:26:48;3.60;99.90
7028;DHT22;3555;53.248;10.336;2024-03-07T09:29:15;3.60;99.90
7028;DHT22;3555;53.248;10.336;2024-03-07T09:31:43;3.60;99.90
7028;DHT22;3555;53.248;10.336;2024-03-07T09:34:11;3.50;99.90
7028;DHT22;3555;53.248;10.336;2024-03-07T09:36:40;3.50;99.90
7028;DHT22;3555;53.248;10.336;2024-03-07T09:39:07;3.60;99.90
7028;DHT22;3555;53.248;10.336;2024-03-07T09:41:35;3.70;99.90
7028;DHT22;3555;53.248;10.336;2024-03-07T09:44:02;3.70;99.90
7028;DHT22;3555;53.248;10.336;2024-03-07T09:46:30;3.70;99.90
7028;DHT22;3555;53.248;10.336;2024-03-07T09:48:58;3.60;99.90
7028;DHT22;3555;53.248;10.336;2024-03-07T09:51:28;3.60;99.90
7028;DHT22;3555;53.248;10.336;2024-03-07T09:53:57;3.70;99.90
7028;DHT22;3555;53.248;10.336;2024-03-07T09:56:25;3.80;99.90
7028;DHT22;3555;53.248;10.336;2024-03-07T09:58:57;3.80;99.90
7028;DHT22;3555;53.248;10.336;2024-03-07T10:01:26;3.90;99.90
7028;DHT22;3555;53.248;10.336;2024-03-07T10:03:58;3.80;99.90
7028;DHT22;3555;53.248;10.336;2024-03-07T10:06:28;3.80;99.90
7028;DHT22;3555;53.248;10.336;2024-03-07T10:08:56;4.10;99.90
7028;DHT22;3555;53.248;10.336;2024-03-07T10:11:24;4.10;99.90
7028;DHT22;3555;53.248;10.336;2024-03-07T10:13:52;4.20;99.90
7028;DHT22;3555;53.248;10.336;2024-03-07T10:16:19;4.30;99.90
7028;DHT22;3555;53.248;10.336;2024-03-07T10:18:46;4.30;99.90
7028;DHT22;3555;53.248;10.336;2024-03-07T10:21:14;4.30;99.90
7028;DHT22;3555;53.248;10.336;2024-03-07T10:23:43;4.40;99.90
7028;DHT22;3555;53.248;10.336;2024-03-07T10:26:11;4.30;99.90
7028;DHT22;3555;53.248;10.336;2024-03-07T10:28:38;4.20;99.90
7028;DHT22;3555;53.248;10.336;2024-03-07T10:31:05;4.40;99.90
7028;DHT22;3555;53.248;10.336;2024-03-07T10:33:36;4.40;99.90
7028;DHT22;3555;53.248;10.336;2024-03-07T10:36:05;4.40;99.90
7028;DHT22;3555;53.248;10.336;2024-03-07T10:38:35;4.50;99.90
7028;DHT22;3555;53.248;10.336;2024-03-07T10:41:05;4.40;99.90
7028;DHT22;3555;53.248;10.336;2024-03-07T10:43:36;4.40;99.90
7028;DHT22;3555;53.248;10.336;2024-03-07T10:46:09;4.50;99.90
7028;DHT22;3555;53.248;10.336;2024-03-07T10:48:38;4.40;99.90
7028;DHT22;3555;53.248;10.336;2024-03-07T10:51:14;4.40;99.90
7028;DHT22;3555;53.248;10.336;2024-03-07T10:53:55;4.50;99.90
7028;DHT22;3555;53.248;10.336;2024-03-07T10:56:37;4.50;99.90
7028;DHT22;3555;53.248;10.336;2024-03-07T10:59:16;4.50;99.90
7028;DHT22;3555;53.248;10.336;2024-03-07T11:01:47;4.60;99.90
7028;DHT22;3555;53.248;10.336;2024-03-07T11:04:16;4.60;99.90
7028;DHT22;3555;53.248;10.336;2024-03-07T11:06:44;4.70;99.90
7028;DHT22;3555;53.248;10.336;2024-03-07T11:09:11;4.70;99.90
7028;DHT22;3555;53.248;10.336;2024-03-07T11:11:41;4.70;99.90
7028;DHT22;3555;53.248;10.336;2024-03-07T11:14:10;4.80;99.90
7028;DHT22;3555;53.248;10.336;2024-03-07T11:16:39;4.90;99.90
7028;DHT22;3555;53.248;10.336;2024-03-07T11:19:25;4.90;99.90
7028;DHT22;3555;53.248;10.336;2024-03-07T11:21:53;4.90;99.90
7028;DHT22;3555;53.248;10.336;2024-03-07T11:24:25;4.70;99.90
7028;DHT22;3555;53.248;10.336;2024-03-07T11:26:55;4.70;99.90
7028;DHT22;3555;53.248;10.336;2024-03-07T11:29:42;4.70;99.90
7028;DHT22;3555;53.248;10.336;2024-03-07T11:32:10;4.90;99.90
7028;DHT22;3555;53.248;10.336;2024-03-07T11:34:40;5.00;99.90
7028;DHT22;3555;53.248;10.336;2024-03-07T11:37:08;4.90;99.90
7028;DHT22;3555;53.248;10.336;2024-03-07T11:39:43;4.90;99.90
7028;DHT22;3555;53.248;10.336;2024-03-07T11:42:23;4.90;99.90
7028;DHT22;3555;53.248;10.336;2024-03-07T11:44:51;4.90;99.90
7028;DHT22;3555;53.248;10.336;2024-03-07T11:47:18;5.00;99.90
7028;DHT22;3555;53.248;10.336;2024-03-07T11:49:45;5.10;99.90
7028;DHT22;3555;53.248;10.336;2024-03-07T11:52:14;5.10;99.90
7028;DHT22;3555;53.248;10.336;2024-03-07T11:54:42;5.20;99.90
7028;DHT22;3555;53.248;10.336;2024-03-07T11:57:13;5.20;99.90
7028;DHT22;3555;53.248;10.336;2024-03-07T11:59:41;5.20;99.90
7028;DHT22;3555;53.248;10.336;2024-03-07T12:02:12;5.30;99.90
7028;DHT22;3555;53.248;10.336;2024-03-07T12:04:40;5.20;99.90
7028;DHT22;3555;53.248;10.336;2024-03-07T12:07:07;5.30;99.90
7028;DHT22;3555;53.248;10.336;2024-03-07T12:09:36;5.30;99.90
7028;DHT22;3555;53.248;10.336;2024-03-07T12:12:04;5.20;99.90
7028;DHT22;3555;53.248;10.336;2024-03-07T12:14:31;5.30;99.90
7028;DHT22;3555;53.248;10.336;2024-03-07T12:17:01;5.30;99.90
7028;DHT22;3555;53.248;10.336;2024-03-07T12:19:30;5.40;99.90
7028;DHT22;3555;53.248;10.336;2024-03-07T12:22:00;5.40;99.90
7028;DHT22;3555;53.248;10.336;2024-03-07T12:24:28;5.50;99.90
7028;DHT22;3555;53.248;10.336;2024-03-07T12:27:05;5.60;99.90
7028;DHT22;3555;53.248;10.336;2024-03-07T12:29:32;5.60;99.90
7028;DHT22;3555;53.248;10.336;2024-03-07T12:32:01;5.60;99.90
7028;DHT22;3555;53.248;10.336;2024-03-07T12:34:28;5.50;99.90
7028;DHT22;3555;53.248;10.336;2024-03-07T12:36:57;5.50;99.90
7028;DHT22;3555;53.248;10.336;2024-03-07T12:39:24;5.60;99.90
7028;DHT22;3555;53.248;10.336;2024-03-07T12:41:52;5.50;99.90
7028;DHT22;3555;53.248;10.336;2024-03-07T12:44:19;5.60;99.90
7028;DHT22;3555;53.248;10.336;2024-03-07T12:46:47;5.70;99.90
7028;DHT22;3555;53.248;10.336;2024-03-07T12:49:15;5.60;99.90
7028;DHT22;3555;53.248;10.336;2024-03-07T12:51:42;5.70;99.90
7028;DHT22;3555;53.248;10.336;2024-03-07T12:54:09;5.70;99.90
7028;DHT22;3555;53.248;10.336;2024-03-07T12:56:36;5.80;99.90
7028;DHT22;3555;53.248;10.336;2024-03-07T12:59:04;5.80;99.90
7028;DHT22;3555;53.248;10.336;2024-03-07T13:01:35;5.90;99.90
7028;DHT22;3555;53.248;10.336;2024-03-07T13:04:04;5.90;99.90
7028;DHT22;3555;53.248;10.336;2024-03-07T13:06:34;6.10;99.90
7028;DHT22;3555;53.248;10.336;2024-03-07T13:09:01;6.30;99.90
7028;DHT22;3555;53.248;10.336;2024-03-07T13:11:28;6.30;99.90
7028;DHT22;3555;53.248;10.336;2024-03-07T13:13:57;6.20;99.90
7028;DHT22;3555;53.248;10.336;2024-03-07T13:16:24;6.20;99.90
7028;DHT22;3555;53.248;10.336;2024-03-07T13:18:53;6.20;99.90
7028;DHT22;3555;53.248;10.336;2024-03-07T13:21:20;6.10;99.90
7028;DHT22;3555;53.248;10.336;2024-03-07T13:23:49;6.20;99.90
7028;DHT22;3555;53.248;10.336;2024-03-07T13:26:20;6.30;99.90
7028;DHT22;3555;53.248;10.336;2024-03-07T13:28:50;6.30;99.90
7028;DHT22;3555;53.248;10.336;2024-03-07T13:31:18;6.30;99.90
7028;DHT22;3555;53.248;10.336;2024-03-07T13:33:46;6.40;99.90
7028;DHT22;3555;53.248;10.336;2024-03-07T13:36:17;6.50;99.90
7028;DHT22;3555;53.248;10.336;2024-03-07T13:38:49;6.50;99.90
7028;DHT22;3555;53.248;10.336;2024-03-07T13:41:18;6.60;99.90
7028;DHT22;3555;53.248;10.336;2024-03-07T13:43:45;6.80;99.90
7028;DHT22;3555;53.248;10.336;2024-03-07T13:46:13;6.70;99.90
7028;DHT22;3555;53.248;10.336;2024-03-07T13:48:40;6.70;99.90
7028;DHT22;3555;53.248;10.336;2024-03-07T13:51:08;6.80;99.90
7028;DHT22;3555;53.248;10.336;2024-03-07T13:53:35;6.90;99.90
7028;DHT22;3555;53.248;10.336;2024-03-07T13:56:39;7.00;99.90
7028;DHT22;3555;53.248;10.336;2024-03-07T14:02:14;7.00;99.90
7028;DHT22;3555;53.248;10.336;2024-03-07T14:05:34;7.00;99.90
7028;DHT22;3555;53.248;10.336;2024-03-07T14:08:22;7.00;99.90
7028;DHT22;3555;53.248;10.336;2024-03-07T14:11:15;7.00;99.90
7028;DHT22;3555;53.248;10.336;2024-03-07T14:14:05;7.00;99.90
7028;DHT22;3555;53.248;10.336;2024-03-07T14:16:50;7.10;99.90
7028;DHT22;3555;53.248;10.336;2024-03-07T14:20:09;7.20;99.90
7028;DHT22;3555;53.248;10.336;2024-03-07T14:23:04;7.20;99.90
7028;DHT22;3555;53.248;10.336;2024-03-07T14:25:47;7.10;99.90
7028;DHT22;3555;53.248;10.336;2024-03-07T14:28:33;7.30;99.90
7028;DHT22;3555;53.248;10.336;2024-03-07T14:31:06;7.30;99.90
7028;DHT22;3555;53.248;10.336;2024-03-07T14:33:50;7.30;99.90
7028;DHT22;3555;53.248;10.336;2024-03-07T14:36:33;7.40;99.90
7028;DHT22;3555;53.248;10.336;2024-03-07T14:39:02;7.40;99.90
7028;DHT22;3555;53.248;10.336;2024-03-07T14:41:43;7.40;99.90
7028;DHT22;3555;53.248;10.336;2024-03-07T14:44:14;7.40;99.90
7028;DHT22;3555;53.248;10.336;2024-03-07T14:46:42;7.50;99.90
7028;DHT22;3555;53.248;10.336;2024-03-07T14:49:13;7.40;99.90
7028;DHT22;3555;53.248;10.336;2024-03-07T14:51:41;7.50;99.90
7028;DHT22;3555;53.248;10.336;2024-03-07T14:54:08;7.60;99.90
7028;DHT22;3555;53.248;10.336;2024-03-07T14:56:36;7.50;99.90
7028;DHT22;3555;53.248;10.336;2024-03-07T14:59:03;7.30;99.90
7028;DHT22;3555;53.248;10.336;2024-03-07T15:01:31;7.40;99.90
7028;DHT22;3555;53.248;10.336;2024-03-07T15:04:01;7.20;99.90
7028;DHT22;3555;53.248;10.336;2024-03-07T15:06:33;7.20;99.90
7028;DHT22;3555;53.248;10.336;2024-03-07T15:09:00;7.30;99.90
7028;DHT22;3555;53.248;10.336;2024-03-07T15:11:31;7.50;99.90
7028;DHT22;3555;53.248;10.336;2024-03-07T15:14:00;7.50;99.90
7028;DHT22;3555;53.248;10.336;2024-03-07T15:16:30;7.50;99.90
7028;DHT22;3555;53.248;10.336;2024-03-07T15:19:01;7.60;99.90
7028;DHT22;3555;53.248;10.336;2024-03-07T15:21:28;7.40;99.90
7028;DHT22;3555;53.248;10.336;2024-03-07T15:23:55;7.50;99.90
7028;DHT22;3555;53.248;10.336;2024-03-07T15:26:22;7.50;99.90
7028;DHT22;3555;53.248;10.336;2024-03-07T15:28:50;7.30;99.90
7028;DHT22;3555;53.248;10.336;2024-03-07T15:31:17;7.30;99.90
7028;DHT22;3555;53.248;10.336;2024-03-07T15:33:45;7.30;99.90
7028;DHT22;3555;53.248;10.336;2024-03-07T15:36:13;7.30;99.90
7028;DHT22;3555;53.248;10.336;2024-03-07T15:38:40;7.20;99.90
7028;DHT22;3555;53.248;10.336;2024-03-07T15:41:07;7.10;99.90
7028;DHT22;3555;53.248;10.336;2024-03-07T15:43:35;7.10;99.90
7028;DHT22;3555;53.248;10.336;2024-03-07T15:46:03;7.20;99.90
7028;DHT22;3555;53.248;10.336;2024-03-07T15:48:30;7.20;99.90
7028;DHT22;3555;53.248;10.336;2024-03-07T15:50:58;7.30;99.90
7028;DHT22;3555;53.248;10.336;2024-03-07T15:53:26;7.10;99.90
7028;DHT22;3555;53.248;10.336;2024-03-07T15:55:53;7.20;99.90
7028;DHT22;3555;53.248;10.336;2024-03-07T15:58:20;7.30;99.90
7028;DHT22;3555;53.248;10.336;2024-03-07T16:00:48;7.30;99.90
7028;DHT22;3555;53.248;10.336;2024-03-07T16:03:16;7.50;99.90
7028;DHT22;3555;53.248;10.336;2024-03-07T16:05:44;7.50;99.90
7028;DHT22;3555;53.248;10.336;2024-03-07T16:08:13;7.40;99.90
7028;DHT22;3555;53.248;10.336;2024-03-07T16:10:43;7.40;99.90
7028;DHT22;3555;53.248;10.336;2024-03-07T16:13:12;7.40;99.90
7028;DHT22;3555;53.248;10.336;2024-03-07T16:15:41;7.40;99.90